Airfield :
LOGIN :

Register | Disclaimer

   EN    FR    IT 

 










Legend :    VFR   Marginal VFR   IFR   Intensive IFR   Very Intensive IFR
Visi :
Ceiling :
>= 8 km
>= 3000ft
5 to 8 km
1000 to 3000 ft
1500m to 5 km
500 to 1000 ft
800 to 1500m
200 to 500 ft
< 800m
< 200 ft
Symbols :   Thunderstorms  Fog  Heavy snow  Heavy precipitations  Wind > 20 kt
SIGMETs :     Misc.  Thunderstorms  Icing  Turbulence  Mountain Waves  Volcanic Ashes






- Airport Elevation : 286 ft
- IATA code : FFD


EGVA - RAF Fairford

CURRENT METAR :
  • 271656Z AUTO 30012G18KT 9999 CLR 07/M02 A2979 RMK AO2 SLP094 T00711024 $

EXPIRED METARs :
  • 271556Z AUTO 30014G21KT 9999 BKN050 08/M03 A2975 RMK AO2 SLP080 T00791027 $
  • 271551Z AUTO 31014G21KT 9999 BKN050 08/M03 A2975 RMK AO2 SLP080 $
  • 271536Z AUTO 31010G18KT 9999 BKN048 08/M03 A2974 RMK AO2 SLP077 $
  • 271521Z AUTO 31014G19KT 9999 BKN048 BKN060 09/M02 A2972 RMK AO2 SLP070 $
  • 271516Z AUTO 32013G21KT 9999 BKN050 BKN060 08/M03 A2972 RMK AO2 SLP070 $
  • 271501Z AUTO 31011KT 9999 BKN049 BKN060 08/M03 A2971 RMK AO2 SLP066 $

Expired Forecast.



MET'MAP, your aeronautical weather chart ! - Copyright ORBIFLY December 2007 - Disclaimer

ORBIFLY MET'MAP TEAM :

Programming & Development : Alexandra Zaïnal
Concept & original design : Baudouin d'Aumeries
Assistance for programming : Marc-Olivier Méhu
Technical & hardware support : Manuel Goepfert

Contact : metmap@orbifly.com




SOURCES & CREDITS :

   NOAA